Time;durP1;ratioP1;P1;durP2;ratioP2;P2;SDS_P1;SDS_P2;PMS_P1;PMS_P2;Temp;Humidity;BMP_temperature;BMP_pressure;BME280_temperature;BME280_humidity;BME280_pressure;Samples;Min_cycle;Max_cycle;Signal;HPM_P1;HPM_P2
2022/05/28 00:01:30;;;;;;;6.40;4.10;;;14.60;80.20;;;;;;5053658;28;20949;-78
2022/05/28 00:03:59;;;;;;;7.40;3.87;;;14.70;79.50;;;;;;5050701;28;20515;-77
2022/05/28 00:06:28;;;;;;;6.37;3.80;;;14.60;80.20;;;;;;5046983;28;20267;-77
2022/05/28 00:08:56;;;;;;;8.23;4.57;;;14.50;79.90;;;;;;5054403;28;20430;-77
2022/05/28 00:11:34;;;;;;;8.00;4.57;;;14.40;81.50;;;;;;5052712;28;20423;-76
2022/05/28 00:14:00;;;;;;;11.27;5.10;;;14.50;82.10;;;;;;5043895;28;20428;-76
2022/05/28 00:16:27;;;;;;;9.60;4.20;;;14.60;82.10;;;;;;5052065;28;20430;-76
2022/05/28 00:18:53;;;;;;;8.87;4.27;;;14.50;82.10;;;;;;5046724;28;20471;-77
2022/05/28 00:21:21;;;;;;;11.37;4.77;;;14.50;81.90;;;;;;5051357;28;20423;-76
2022/05/28 00:23:47;;;;;;;11.17;5.40;;;14.40;81.90;;;;;;5049727;28;20462;-75
2022/05/28 00:26:14;;;;;;;11.80;6.20;;;14.40;82.40;;;;;;5034895;28;20444;-78
2022/05/28 00:28:41;;;;;;;12.83;5.33;;;14.40;83.00;;;;;;5047662;28;20428;-76
2022/05/28 00:31:07;;;;;;;6.90;4.60;;;14.50;83.10;;;;;;5042406;28;20910;-77
2022/05/28 00:33:34;;;;;;;11.70;5.10;;;14.40;83.80;;;;;;5049446;28;20517;-76
2022/05/28 00:36:01;;;;;;;9.97;4.80;;;14.30;84.00;;;;;;5045329;28;20550;-76
2022/05/28 00:38:27;;;;;;;11.90;5.10;;;14.10;84.00;;;;;;5043059;28;20440;-77
2022/05/28 00:40:58;;;;;;;14.77;5.27;;;13.90;82.20;;;;;;5048773;28;20896;-77
2022/05/28 00:43:24;;;;;;;13.00;5.27;;;13.70;83.10;;;;;;5042476;28;20925;-77
2022/05/28 00:45:54;;;;;;;8.27;4.30;;;13.70;83.80;;;;;;5043049;28;20451;-76
2022/05/28 00:48:27;;;;;;;9.27;4.33;;;13.60;83.10;;;;;;5047533;28;20486;-76
2022/05/28 00:50:53;;;;;;;7.47;4.20;;;13.60;82.40;;;;;;5045796;28;20412;-75
2022/05/28 00:53:19;;;;;;;11.70;5.10;;;13.60;83.60;;;;;;5052013;28;20430;-76
2022/05/28 00:55:45;;;;;;;8.63;4.77;;;13.70;84.60;;;;;;5052249;28;20210;-77
2022/05/28 00:58:11;;;;;;;7.57;4.80;;;13.90;84.40;;;;;;5057486;28;20498;-75
2022/05/28 01:00:37;;;;;;;9.27;5.13;;;13.90;84.40;;;;;;5055404;28;20208;-76
2022/05/28 01:03:48;;;;;;;10.67;5.00;;;13.90;84.90;;;;;;5063850;28;20627;-76
2022/05/28 01:06:20;;;;;;;6.70;5.27;;;13.90;85.30;;;;;;5052773;28;20435;-75
2022/05/28 01:08:54;;;;;;;11.63;5.60;;;13.80;85.50;;;;;;5051639;28;20442;-76
2022/05/28 01:11:51;;;;;;;10.60;5.43;;;13.80;86.20;;;;;;5048135;28;20425;-77
2022/05/28 01:14:36;;;;;;;8.30;4.40;;;13.60;86.60;;;;;;5034842;28;20533;-76
2022/05/28 01:17:48;;;;;;;10.07;5.10;;;13.70;87.60;;;;;;5050359;28;20510;-77
2022/05/28 01:20:21;;;;;;;10.67;4.63;;;13.70;86.60;;;;;;5051079;28;20471;-78
2022/05/28 01:23:21;;;;;;;10.60;5.03;;;13.70;87.40;;;;;;5053142;28;20421;-76
2022/05/28 01:26:07;;;;;;;12.30;6.00;;;13.80;86.60;;;;;;5044274;28;20458;-77
2022/05/28 01:28:48;;;;;;;15.13;4.30;;;13.70;84.60;;;;;;5033382;28;20504;-76
2022/05/28 01:31:16;;;;;;;11.33;5.00;;;13.60;83.70;;;;;;5046578;28;20892;-75
2022/05/28 01:33:43;;;;;;;16.17;6.10;;;13.60;84.00;;;;;;5045487;28;20438;-77
2022/05/28 01:36:12;;;;;;;11.37;5.37;;;13.80;83.80;;;;;;5046239;28;20459;-76
2022/05/28 01:38:41;;;;;;;7.37;4.13;;;13.80;82.50;;;;;;5051186;28;20411;-76
2022/05/28 01:41:08;;;;;;;9.53;4.93;;;13.70;81.20;;;;;;5042022;28;20931;-76
2022/05/28 01:43:40;;;;;;;9.70;4.80;;;13.60;80.20;;;;;;5052946;28;20419;-76
2022/05/28 01:46:07;;;;;;;11.57;4.97;;;13.30;79.20;;;;;;5042948;28;20462;-75
2022/05/28 01:48:34;;;;;;;7.10;3.67;;;13.30;80.50;;;;;;5052706;28;20926;-77
2022/05/28 01:51:02;;;;;;;12.33;4.37;;;13.30;80.30;;;;;;5048148;28;20476;-76
2022/05/28 01:56:15;;;;;;;6.70;3.80;;;13.20;79.50;;;;;;5049509;28;20963;-77
2022/05/28 01:58:41;;;;;;;15.03;4.70;;;13.30;79.20;;;;;;5050037;28;20893;-75
2022/05/28 02:01:09;;;;;;;13.13;4.60;;;13.20;79.60;;;;;;5052998;28;20427;-75
2022/05/28 02:03:38;;;;;;;10.23;4.50;;;13.10;78.70;;;;;;5057132;28;20423;-77
2022/05/28 02:06:04;;;;;;;10.93;4.10;;;13.00;78.70;;;;;;5058027;28;20495;-76
2022/05/28 02:08:35;;;;;;;12.03;4.63;;;13.00;78.00;;;;;;5047953;28;20480;-76
2022/05/28 02:11:09;;;;;;;8.60;3.70;;;13.10;78.00;;;;;;5049278;28;20423;-76
2022/05/28 02:13:45;;;;;;;9.97;3.57;;;13.00;77.40;;;;;;5046726;28;20501;-76
2022/05/28 02:16:20;;;;;;;6.80;4.00;;;12.80;77.60;;;;;;5044896;28;20453;-76
2022/05/28 02:18:59;;;;;;;6.87;3.70;;;12.70;78.10;;;;;;5051673;28;20474;-75
2022/05/28 02:21:49;;;;;;;11.20;4.50;;;12.80;77.40;;;;;;5051533;28;20434;-75
2022/05/28 02:24:23;;;;;;;7.43;3.57;;;12.80;77.00;;;;;;5050414;28;20460;-76
2022/05/28 02:26:54;;;;;;;9.50;3.73;;;12.70;76.20;;;;;;5051437;28;20830;-76
2022/05/28 02:29:21;;;;;;;8.17;3.40;;;12.70;76.50;;;;;;5050904;28;20514;-77
2022/05/28 02:31:48;;;;;;;7.30;3.37;;;12.60;75.90;;;;;;5045966;28;20424;-77
2022/05/28 02:34:15;;;;;;;8.47;3.80;;;12.60;75.90;;;;;;5050054;28;21361;-77
2022/05/28 02:36:41;;;;;;;6.70;3.20;;;12.50;75.70;;;;;;5042813;28;20937;-78
2022/05/28 02:39:07;;;;;;;5.37;3.80;;;12.50;75.80;;;;;;5051618;28;20454;-76
2022/05/28 02:41:33;;;;;;;11.40;4.53;;;12.30;74.60;;;;;;5052895;28;20545;-77
2022/05/28 02:43:59;;;;;;;11.17;3.77;;;12.40;75.10;;;;;;5051693;28;20870;-79
2022/05/28 02:46:25;;;;;;;7.83;3.47;;;12.30;75.90;;;;;;5051117;28;20187;-75
2022/05/28 02:48:51;;;;;;;9.17;3.90;;;12.40;75.70;;;;;;5045005;28;20183;-76
2022/05/28 02:51:20;;;;;;;8.50;3.20;;;12.40;75.80;;;;;;5047935;28;20426;-76
2022/05/28 02:53:46;;;;;;;9.63;3.07;;;12.30;75.10;;;;;;5052969;28;20498;-76
2022/05/28 02:56:12;;;;;;;5.67;3.10;;;12.10;75.70;;;;;;5048806;28;20427;-77
2022/05/28 02:58:39;;;;;;;11.97;3.70;;;12.10;76.40;;;;;;5050020;28;20430;-75
2022/05/28 03:01:28;;;;;;;13.50;3.73;;;12.20;75.70;;;;;;5050709;28;20459;-76
2022/05/28 03:03:55;;;;;;;7.30;2.43;;;11.90;75.20;;;;;;5049883;28;20410;-77
2022/05/28 03:06:21;;;;;;;8.43;3.13;;;11.80;75.50;;;;;;5048021;28;20427;-78
2022/05/28 03:08:47;;;;;;;8.03;2.90;;;11.70;75.70;;;;;;5052482;28;20780;-75
2022/05/28 03:11:13;;;;;;;10.60;4.00;;;11.60;75.80;;;;;;5052064;28;20180;-76
2022/05/28 03:13:39;;;;;;;9.50;2.80;;;11.70;76.80;;;;;;5045490;28;20415;-76
2022/05/28 03:16:05;;;;;;;7.43;3.40;;;11.80;76.70;;;;;;5044307;28;20228;-75
2022/05/28 03:18:30;;;;;;;9.33;3.30;;;11.80;75.40;;;;;;5052340;28;20430;-76
2022/05/28 03:20:56;;;;;;;8.43;4.10;;;11.70;75.40;;;;;;5052474;28;20463;-77
2022/05/28 03:23:22;;;;;;;10.20;2.97;;;11.70;75.20;;;;;;5049105;28;20185;-77
2022/05/28 03:25:48;;;;;;;10.23;3.33;;;11.60;74.90;;;;;;5044537;28;20253;-77
2022/05/28 03:28:14;;;;;;;10.70;3.03;;;11.70;74.50;;;;;;5047301;28;20989;-76
2022/05/28 03:30:40;;;;;;;5.50;2.70;;;11.60;75.20;;;;;;5040900;28;20184;-77
2022/05/28 03:33:06;;;;;;;9.83;2.73;;;11.60;75.20;;;;;;5049859;28;20191;-76
2022/05/28 03:35:32;;;;;;;13.43;3.67;;;11.60;74.90;;;;;;5048331;28;20463;-77
2022/05/28 03:37:58;;;;;;;8.90;3.43;;;11.60;75.10;;;;;;5046194;28;20185;-77
2022/05/28 03:40:23;;;;;;;11.10;3.40;;;11.50;74.80;;;;;;5056755;28;20459;-77
2022/05/28 03:42:49;;;;;;;9.17;2.60;;;11.60;75.20;;;;;;5050682;28;20184;-76
2022/05/28 03:45:15;;;;;;;9.83;2.97;;;11.60;74.90;;;;;;5053916;28;20207;-75
2022/05/28 03:47:41;;;;;;;4.83;2.60;;;11.70;74.80;;;;;;5054751;28;20208;-76
2022/05/28 03:50:07;;;;;;;12.63;3.40;;;11.50;74.20;;;;;;5053049;28;20565;-76
2022/05/28 03:52:33;;;;;;;17.33;3.20;;;11.40;75.10;;;;;;5045203;28;20189;-76
2022/05/28 03:54:59;;;;;;;10.40;3.30;;;11.50;75.50;;;;;;5048844;28;20462;-76
2022/05/28 03:57:28;;;;;;;13.10;3.83;;;11.50;74.90;;;;;;5043644;28;20204;-75
2022/05/28 03:59:54;;;;;;;7.63;3.10;;;11.60;75.10;;;;;;5045337;28;20463;-76
2022/05/28 04:02:20;;;;;;;15.53;3.60;;;11.60;74.80;;;;;;5049952;28;20514;-76
2022/05/28 04:04:46;;;;;;;7.87;3.20;;;11.50;74.20;;;;;;5046631;28;20449;-76
2022/05/28 04:07:13;;;;;;;7.33;2.70;;;11.30;74.90;;;;;;5053955;28;20412;-75
2022/05/28 04:09:39;;;;;;;9.67;2.80;;;11.40;75.40;;;;;;5059063;28;20441;-77
2022/05/28 04:12:06;;;;;;;9.13;3.23;;;11.40;75.10;;;;;;5055639;28;21131;-77
2022/05/28 04:14:32;;;;;;;11.00;4.13;;;11.50;74.80;;;;;;5053441;28;20482;-76
2022/05/28 04:16:58;;;;;;;10.93;3.00;;;11.50;73.70;;;;;;5046980;28;20456;-76
2022/05/28 04:19:24;;;;;;;9.23;3.30;;;11.50;73.70;;;;;;5054725;28;20454;-76
2022/05/28 04:21:49;;;;;;;8.50;2.63;;;11.50;73.90;;;;;;5048154;28;21016;-77
2022/05/28 04:24:15;;;;;;;8.63;3.03;;;11.30;74.30;;;;;;5040955;28;20597;-77
2022/05/28 04:26:41;;;;;;;6.20;2.70;;;11.30;74.60;;;;;;5041751;28;20184;-76
2022/05/28 04:29:07;;;;;;;6.57;3.17;;;11.30;75.10;;;;;;5041666;28;20189;-76
2022/05/28 04:31:33;;;;;;;8.20;2.30;;;11.30;74.80;;;;;;5043990;28;20953;-77
2022/05/28 04:33:58;;;;;;;12.57;3.00;;;11.20;75.10;;;;;;5044602;28;20234;-75
2022/05/28 04:36:24;;;;;;;6.07;3.27;;;11.30;75.70;;;;;;5042997;28;20288;-77
2022/05/28 04:38:50;;;;;;;10.43;2.83;;;11.30;75.40;;;;;;5056252;28;20400;-76
2022/05/28 04:41:16;;;;;;;10.73;3.30;;;11.30;75.10;;;;;;5049338;28;20415;-75
2022/05/28 04:43:42;;;;;;;7.03;2.70;;;11.40;74.80;;;;;;5055588;28;20177;-76
2022/05/28 04:46:08;;;;;;;10.20;3.40;;;11.30;74.30;;;;;;5049474;28;20454;-77
2022/05/28 04:48:34;;;;;;;33.23;3.00;;;11.20;74.50;;;;;;5055637;28;20179;-77
2022/05/28 04:51:00;;;;;;;4.10;2.30;;;11.10;74.60;;;;;;5049619;28;20191;-76
2022/05/28 04:53:26;;;;;;;9.63;2.93;;;11.10;75.20;;;;;;5047499;28;20428;-76
2022/05/28 04:55:52;;;;;;;10.00;2.83;;;11.30;75.10;;;;;;5050312;28;20200;-77
2022/05/28 04:58:18;;;;;;;9.47;2.83;;;11.40;74.50;;;;;;5053860;28;20439;-75
2022/05/28 05:00:45;;;;;;;5.93;2.70;;;11.50;74.50;;;;;;5050559;28;20515;-78
2022/05/28 05:03:12;;;;;;;13.60;3.27;;;11.40;74.30;;;;;;5055090;28;20286;-76
2022/05/28 05:05:38;;;;;;;9.13;3.10;;;11.30;74.80;;;;;;5047947;28;21007;-76
2022/05/28 05:08:04;;;;;;;8.17;2.73;;;11.30;74.80;;;;;;5047769;28;20414;-77
2022/05/28 05:10:30;;;;;;;6.57;2.90;;;11.30;75.10;;;;;;5045587;28;20423;-77
2022/05/28 05:12:56;;;;;;;11.23;3.60;;;11.30;74.60;;;;;;5042067;28;20427;-76
2022/05/28 05:15:22;;;;;;;10.90;3.13;;;11.40;74.80;;;;;;5048056;28;20466;-76
2022/05/28 05:17:48;;;;;;;11.60;3.30;;;11.60;74.30;;;;;;5049810;28;20180;-75
2022/05/28 05:20:14;;;;;;;10.03;3.03;;;11.60;74.20;;;;;;5046514;28;20213;-77
2022/05/28 05:22:40;;;;;;;13.27;3.10;;;11.60;74.00;;;;;;5048639;28;20786;-77
2022/05/28 05:25:08;;;;;;;8.47;3.30;;;11.60;74.30;;;;;;5050189;28;20509;-77
2022/05/28 05:27:33;;;;;;;12.53;3.47;;;11.60;74.30;;;;;;5058356;28;20427;-77
2022/05/28 05:30:00;;;;;;;14.57;3.90;;;11.60;73.90;;;;;;5047551;28;20430;-77
2022/05/28 05:32:26;;;;;;;10.17;3.13;;;11.60;74.30;;;;;;5050528;28;20271;-76
2022/05/28 05:34:52;;;;;;;10.77;3.00;;;11.70;74.20;;;;;;5051811;28;20979;-77
2022/05/28 05:37:18;;;;;;;13.87;3.50;;;11.80;74.30;;;;;;5044887;28;20443;-77
2022/05/28 05:39:44;;;;;;;9.63;3.20;;;11.70;73.90;;;;;;5051855;28;20466;-76
2022/05/28 05:42:10;;;;;;;12.93;2.80;;;11.80;74.30;;;;;;5052787;28;20457;-77
2022/05/28 05:44:37;;;;;;;9.13;3.10;;;11.80;73.90;;;;;;5043973;28;20576;-77
2022/05/28 05:47:03;;;;;;;10.30;3.30;;;11.80;74.00;;;;;;5050128;28;20415;-77
2022/05/28 05:49:29;;;;;;;11.17;2.70;;;11.80;74.30;;;;;;5048026;28;20439;-75
2022/05/28 05:51:55;;;;;;;11.43;3.70;;;11.70;74.30;;;;;;5053140;28;20480;-77
2022/05/28 05:54:24;;;;;;;11.20;3.30;;;11.90;74.30;;;;;;5045531;28;20263;-76
2022/05/28 05:56:49;;;;;;;7.77;2.93;;;11.90;74.00;;;;;;5048672;28;20420;-76
2022/05/28 05:59:15;;;;;;;7.80;3.10;;;11.90;74.20;;;;;;5057012;28;20458;-77
2022/05/28 06:01:42;;;;;;;6.37;2.70;;;12.00;73.90;;;;;;5055801;28;20193;-77
2022/05/28 06:04:08;;;;;;;11.60;2.80;;;11.90;73.60;;;;;;5043628;28;20858;-76
2022/05/28 06:06:34;;;;;;;8.43;3.20;;;11.90;73.50;;;;;;5049864;28;20411;-77
2022/05/28 06:09:00;;;;;;;8.10;2.80;;;12.00;72.90;;;;;;5051524;28;20414;-78
2022/05/28 06:11:26;;;;;;;8.40;3.30;;;11.90;72.40;;;;;;5057658;28;20828;-77
2022/05/28 06:13:52;;;;;;;7.30;2.83;;;12.00;72.40;;;;;;5057662;28;20502;-76
2022/05/28 06:16:18;;;;;;;10.13;2.90;;;11.90;71.10;;;;;;5053171;28;20219;-77
2022/05/28 06:18:44;;;;;;;11.25;2.90;;;11.90;71.30;;;;;;5055820;28;20415;-78
2022/05/28 06:21:10;;;;;;;10.70;2.80;;;11.90;71.40;;;;;;5073376;28;20188;-77
2022/05/28 06:23:36;;;;;;;12.17;2.83;;;12.00;71.70;;;;;;5059643;28;20559;-76
2022/05/28 06:26:05;;;;;;;12.13;2.30;;;12.10;69.70;;;;;;5064598;28;20200;-77
2022/05/28 06:28:31;;;;;;;9.60;2.40;;;12.10;69.70;;;;;;5063985;28;20189;-76
2022/05/28 06:31:03;;;;;;;17.63;2.93;;;12.10;69.90;;;;;;5057849;28;20450;-76
2022/05/28 06:33:29;;;;;;;8.57;2.10;;;12.20;68.30;;;;;;5048428;28;20424;-76
2022/05/28 06:36:00;;;;;;;5.10;2.10;;;12.30;67.70;;;;;;5047734;28;20517;-77
2022/05/28 06:38:26;;;;;;;6.43;2.80;;;12.50;67.70;;;;;;5056460;28;20441;-75
2022/05/28 06:40:52;;;;;;;10.67;1.80;;;12.50;66.30;;;;;;5055733;28;20478;-77
2022/05/28 06:43:18;;;;;;;6.63;2.07;;;12.60;64.50;;;;;;5054813;28;20694;-75
2022/05/28 06:45:44;;;;;;;4.53;1.93;;;12.40;64.50;;;;;;5058768;28;20467;-75
2022/05/28 06:48:10;;;;;;;4.63;1.60;;;12.40;64.50;;;;;;5066371;28;20414;-77
2022/05/28 06:53:20;;;;;;;3.87;2.00;;;12.70;65.00;;;;;;5054031;28;20786;-76
2022/05/28 06:55:47;;;;;;;10.47;2.27;;;12.70;64.50;;;;;;5045611;28;20446;-76
2022/05/28 06:58:14;;;;;;;8.37;2.50;;;12.70;65.30;;;;;;5051137;28;20560;-76
2022/05/28 07:00:40;;;;;;;4.53;1.80;;;12.60;65.80;;;;;;5049279;28;20470;-76
2022/05/28 07:03:06;;;;;;;4.70;2.07;;;12.60;66.10;;;;;;5049707;28;20434;-76
2022/05/28 07:05:32;;;;;;;8.37;2.40;;;12.60;66.10;;;;;;5043260;28;20448;-78
2022/05/28 07:07:58;;;;;;;6.03;1.97;;;12.60;65.30;;;;;;5048046;28;20998;-77
2022/05/28 07:10:24;;;;;;;5.63;2.10;;;12.60;65.40;;;;;;5054498;28;20438;-78
2022/05/28 07:12:49;;;;;;;7.83;2.07;;;12.30;65.30;;;;;;5049005;28;20191;-77
2022/05/28 07:15:15;;;;;;;2.73;1.53;;;12.50;65.70;;;;;;5051455;28;20293;-76
2022/05/28 07:17:41;;;;;;;4.80;1.50;;;12.60;65.30;;;;;;5050182;28;20521;-75
2022/05/28 07:20:09;;;;;;;12.50;2.13;;;12.70;64.70;;;;;;5042773;28;20463;-75
2022/05/28 07:22:35;;;;;;;5.20;2.07;;;12.70;64.50;;;;;;5049748;28;20244;-76
2022/05/28 07:25:01;;;;;;;9.70;1.70;;;12.90;63.70;;;;;;5042281;28;20439;-77
2022/05/28 07:27:27;;;;;;;6.50;2.23;;;12.90;63.20;;;;;;5046919;28;20451;-77
2022/05/28 07:29:57;;;;;;;9.73;2.13;;;12.90;64.20;;;;;;5045732;28;20462;-77
2022/05/28 07:32:25;;;;;;;6.43;2.13;;;12.90;64.40;;;;;;5051138;28;20187;-75
2022/05/28 07:34:51;;;;;;;8.03;2.17;;;13.00;64.40;;;;;;5046469;28;20466;-76
2022/05/28 07:37:17;;;;;;;6.20;2.00;;;13.00;63.70;;;;;;5042089;28;20472;-79
2022/05/28 07:39:43;;;;;;;6.90;2.10;;;12.70;63.50;;;;;;5045800;28;20528;-78
2022/05/28 07:42:09;;;;;;;9.77;2.10;;;12.80;63.40;;;;;;5046141;28;20427;-78
2022/05/28 07:44:35;;;;;;;2.40;1.27;;;12.80;62.20;;;;;;5048080;28;20454;-76
2022/05/28 07:47:05;;;;;;;5.50;1.97;;;12.90;62.80;;;;;;5040014;28;20420;-75
2022/05/28 07:49:32;;;;;;;4.80;2.00;;;13.00;61.90;;;;;;5048921;28;20513;-76
2022/05/28 07:51:57;;;;;;;7.37;1.57;;;13.10;61.30;;;;;;5039507;28;20434;-77
2022/05/28 07:54:23;;;;;;;3.93;1.83;;;13.20;60.90;;;;;;5043724;28;21065;-77
2022/05/28 07:56:49;;;;;;;4.50;1.30;;;13.30;61.50;;;;;;5048738;28;20185;-77
2022/05/28 07:59:14;;;;;;;6.80;2.37;;;13.50;61.20;;;;;;5047467;28;20212;-77
2022/05/28 08:01:40;;;;;;;5.20;1.73;;;13.60;59.90;;;;;;5039370;28;20184;-76
2022/05/28 08:04:07;;;;;;;8.30;1.93;;;13.70;58.70;;;;;;5050328;28;20192;-76
2022/05/28 08:06:33;;;;;;;5.63;1.70;;;13.80;59.30;;;;;;5060960;28;20191;-75
2022/05/28 08:08:59;;;;;;;3.23;1.40;;;13.70;58.00;;;;;;5060402;28;20486;-77
2022/05/28 08:11:26;;;;;;;3.20;1.40;;;13.60;56.90;;;;;;5049144;28;20427;-76
2022/05/28 08:13:52;;;;;;;8.30;2.13;;;13.60;55.60;;;;;;5045916;28;20492;-76
2022/05/28 08:16:19;;;;;;;4.20;1.43;;;13.60;57.20;;;;;;5046653;28;20554;-76
2022/05/28 08:18:45;;;;;;;3.40;1.60;;;13.60;56.60;;;;;;5046550;28;20414;-79
2022/05/28 08:23:56;;;;;;;5.00;1.30;;;13.80;57.30;;;;;;5039701;28;20768;-75
2022/05/28 08:26:22;;;;;;;5.50;1.47;;;14.00;56.60;;;;;;5042121;28;20431;-78
2022/05/28 08:28:49;;;;;;;2.80;1.83;;;14.20;57.40;;;;;;5038628;28;20420;-77
2022/05/28 08:31:15;;;;;;;4.00;1.77;;;14.40;57.00;;;;;;5043054;28;20791;-74
2022/05/28 08:33:42;;;;;;;3.10;1.60;;;14.40;56.80;;;;;;5035557;28;20411;-75
2022/05/28 08:36:08;;;;;;;4.60;1.97;;;14.50;57.00;;;;;;5039035;28;20457;-75
2022/05/28 08:38:35;;;;;;;6.53;2.00;;;14.50;57.30;;;;;;5043900;28;20420;-75
2022/05/28 08:41:06;;;;;;;8.63;2.00;;;14.50;57.30;;;;;;5041200;28;20471;-76
2022/05/28 08:43:35;;;;;;;4.00;1.80;;;14.60;57.40;;;;;;5048383;28;20417;-74
2022/05/28 08:46:02;;;;;;;4.90;1.90;;;14.70;56.50;;;;;;5045343;28;20460;-75
2022/05/28 08:48:39;;;;;;;4.00;1.43;;;14.60;57.30;;;;;;5035972;28;20456;-75
2022/05/28 08:51:11;;;;;;;6.23;2.00;;;14.40;57.30;;;;;;5037577;28;20511;-75
2022/05/28 08:53:51;;;;;;;5.27;2.07;;;14.50;57.80;;;;;;5035839;28;20957;-75
2022/05/28 08:56:21;;;;;;;3.70;1.70;;;14.60;58.10;;;;;;5034814;28;20439;-76
2022/05/28 08:58:56;;;;;;;4.07;2.03;;;14.60;58.00;;;;;;5035457;28;20437;-76
2022/05/28 09:01:23;;;;;;;4.03;1.23;;;14.60;58.10;;;;;;5041010;28;20454;-75
2022/05/28 09:03:54;;;;;;;4.30;2.13;;;14.50;57.40;;;;;;5044501;28;20408;-77
2022/05/28 09:06:30;;;;;;;5.40;2.20;;;14.60;57.20;;;;;;5032781;28;20432;-76
2022/05/28 09:08:56;;;;;;;5.73;2.50;;;14.30;58.00;;;;;;5041344;28;20424;-75
2022/05/28 09:11:31;;;;;;;6.63;1.87;;;14.20;59.70;;;;;;5041435;28;20727;-75
2022/05/28 09:14:03;;;;;;;2.73;1.73;;;14.20;59.90;;;;;;5049397;28;20477;-77
2022/05/28 09:16:35;;;;;;;5.93;1.80;;;14.30;58.50;;;;;;5043648;28;20451;-75
2022/05/28 09:19:05;;;;;;;3.60;1.40;;;14.40;58.70;;;;;;5042870;28;20420;-76
2022/05/28 09:21:31;;;;;;;5.20;2.40;;;14.50;58.10;;;;;;5044104;28;20837;-74
2022/05/28 09:24:02;;;;;;;5.60;2.17;;;14.60;58.40;;;;;;5047760;28;20438;-75
2022/05/28 09:26:41;;;;;;;5.40;1.87;;;14.70;58.10;;;;;;5049429;28;20424;-76
2022/05/28 09:29:40;;;;;;;4.10;1.60;;;14.80;57.60;;;;;;5040023;28;20422;-76
2022/05/28 09:32:19;;;;;;;4.87;1.90;;;15.00;56.10;;;;;;5043280;28;20452;-77
2022/05/28 09:35:01;;;;;;;4.13;1.50;;;15.20;55.40;;;;;;5044641;28;20467;-76
2022/05/28 09:37:27;;;;;;;3.57;1.50;;;15.50;54.40;;;;;;5058211;28;20405;-78
2022/05/28 09:39:58;;;;;;;7.00;2.00;;;15.60;54.80;;;;;;5064876;28;20465;-76
2022/05/28 09:42:30;;;;;;;6.10;1.70;;;15.70;55.30;;;;;;5072458;28;20271;-75
2022/05/28 09:45:14;;;;;;;3.73;1.57;;;15.60;55.20;;;;;;5057133;28;20467;-75
2022/05/28 09:47:46;;;;;;;3.73;1.53;;;15.60;54.00;;;;;;5051887;28;20484;-76
2022/05/28 09:50:37;;;;;;;7.60;2.80;;;15.40;53.40;;;;;;5050323;28;20430;-76
2022/05/28 09:55:55;;;;;;;3.30;1.63;;;15.10;55.20;;;;;;5055947;28;20550;-75
2022/05/28 09:58:24;;;;;;;3.67;1.77;;;15.20;55.20;;;;;;5060874;28;20454;-75
2022/05/28 10:00:51;;;;;;;3.03;1.60;;;15.60;54.60;;;;;;5053354;28;20462;-75
2022/05/28 10:06:15;;;;;;;3.43;1.77;;;15.40;54.10;;;;;;5051273;28;20860;-75
2022/05/28 10:08:41;;;;;;;5.23;1.90;;;15.70;54.60;;;;;;5049955;28;20641;-76
2022/05/28 10:11:11;;;;;;;3.80;1.60;;;16.50;53.30;;;;;;5053881;28;20945;-75
2022/05/28 10:13:48;;;;;;;5.77;1.77;;;16.60;52.10;;;;;;5052373;28;20553;-75
2022/05/28 10:16:17;;;;;;;4.83;1.63;;;16.50;49.10;;;;;;5050751;28;20437;-75
2022/05/28 10:18:56;;;;;;;4.97;1.93;;;16.40;49.70;;;;;;5052387;28;20426;-75
2022/05/28 10:21:37;;;;;;;3.77;1.57;;;16.50;50.70;;;;;;5051570;28;20449;-76
2022/05/28 10:24:18;;;;;;;3.13;1.77;;;17.00;50.30;;;;;;5046630;28;20422;-76
2022/05/28 10:26:53;;;;;;;3.30;1.60;;;17.00;49.50;;;;;;5057569;28;20968;-76
2022/05/28 10:29:27;;;;;;;8.50;1.97;;;16.00;52.10;;;;;;5048548;28;20459;-75
2022/05/28 10:31:53;;;;;;;5.33;2.00;;;16.10;51.70;;;;;;5054657;28;20417;-75
2022/05/28 10:34:35;;;;;;;7.70;1.83;;;16.20;51.30;;;;;;5054539;28;20493;-75
2022/05/28 10:37:17;;;;;;;5.87;2.23;;;15.80;53.60;;;;;;5045338;28;20461;-74
2022/05/28 10:39:43;;;;;;;8.83;1.70;;;15.70;54.60;;;;;;5045926;28;20495;-75
2022/05/28 10:42:12;;;;;;;6.00;2.30;;;15.60;54.00;;;;;;5054051;28;20421;-75
2022/05/28 10:44:40;;;;;;;7.50;2.20;;;15.70;54.60;;;;;;5042999;28;20446;-75
2022/05/28 10:47:08;;;;;;;3.20;1.80;;;15.80;54.40;;;;;;5051582;28;20439;-75
2022/05/28 10:49:52;;;;;;;3.67;1.80;;;15.60;53.30;;;;;;5050998;28;20429;-76
2022/05/28 10:52:31;;;;;;;7.30;2.03;;;15.30;54.60;;;;;;5047240;28;20521;-76
2022/05/28 10:55:09;;;;;;;5.33;1.87;;;15.50;54.90;;;;;;5049902;28;20471;-75
2022/05/28 10:57:47;;;;;;;3.53;2.00;;;15.30;54.40;;;;;;5050231;28;20578;-75
2022/05/28 11:00:26;;;;;;;4.43;1.90;;;15.30;53.20;;;;;;5048552;28;20572;-75
2022/05/28 11:02:57;;;;;;;2.37;1.77;;;15.30;50.70;;;;;;5050575;28;20481;-75
2022/05/28 11:06:03;;;;;;;13.90;1.70;;;15.70;51.20;;;;;;5048571;28;20447;-77
2022/05/28 11:08:57;;;;;;;4.30;2.10;;;16.20;50.10;;;;;;5051234;28;20939;-76
2022/05/28 11:11:33;;;;;;;14.47;2.23;;;16.80;48.60;;;;;;5051597;28;20426;-77
2022/05/28 11:14:31;;;;;;;4.40;1.73;;;16.90;49.50;;;;;;5047947;28;20792;-75
2022/05/28 11:17:15;;;;;;;6.20;1.30;;;17.40;47.80;;;;;;5048608;28;20439;-75
2022/05/28 11:20:06;;;;;;;7.97;2.20;;;17.70;45.80;;;;;;5044731;28;20471;-74
2022/05/28 11:22:53;;;;;;;3.90;1.70;;;17.80;45.70;;;;;;5045887;28;20420;-75
2022/05/28 11:25:22;;;;;;;4.87;2.10;;;17.30;47.80;;;;;;5037593;28;20447;-76
2022/05/28 11:28:26;;;;;;;6.70;1.80;;;16.70;48.70;;;;;;5045845;28;20447;-75
2022/05/28 11:30:56;;;;;;;2.97;1.77;;;16.20;48.60;;;;;;5049777;28;20435;-74
2022/05/28 11:33:36;;;;;;;4.20;1.80;;;16.10;48.30;;;;;;5056850;28;20425;-76
2022/05/28 11:36:19;;;;;;;5.50;1.70;;;16.30;46.50;;;;;;5056340;28;20491;-76
2022/05/28 11:39:12;;;;;;;3.40;1.40;;;16.20;44.50;;;;;;5048908;28;20422;-76
2022/05/28 11:41:55;;;;;;;5.23;1.67;;;16.60;45.70;;;;;;5039832;28;20783;-76
2022/05/28 11:44:33;;;;;;;4.30;1.90;;;17.40;45.40;;;;;;5050373;28;20489;-77
2022/05/28 11:47:10;;;;;;;4.83;1.90;;;17.50;44.20;;;;;;5043096;28;20410;-76
2022/05/28 11:52:31;;;;;;;4.13;2.00;;;16.50;46.10;;;;;;5059182;28;20505;-76
2022/05/28 11:55:13;;;;;;;5.10;1.87;;;16.80;46.30;;;;;;5051391;28;20530;-75
2022/05/28 11:57:47;;;;;;;4.23;2.07;;;16.80;45.10;;;;;;5064346;28;20469;-76
2022/05/28 12:00:15;;;;;;;4.57;2.10;;;16.60;44.90;;;;;;5053185;28;20464;-75
2022/05/28 12:02:49;;;;;;;6.73;2.50;;;17.00;46.60;;;;;;5043170;28;20502;-76
2022/05/28 12:05:21;;;;;;;6.50;1.60;;;17.60;43.80;;;;;;5049263;28;20455;-76
2022/05/28 12:07:55;;;;;;;5.43;1.90;;;17.60;42.60;;;;;;5045520;28;20439;-75
2022/05/28 12:10:51;;;;;;;5.43;2.20;;;18.00;42.20;;;;;;5054662;28;20424;-74
2022/05/28 12:13:51;;;;;;;5.37;1.80;;;18.20;42.30;;;;;;5053316;28;20416;-75
2022/05/28 12:16:17;;;;;;;3.50;1.90;;;18.70;42.20;;;;;;5034801;28;20520;-76
2022/05/28 12:18:59;;;;;;;7.93;2.00;;;18.80;42.40;;;;;;5045382;28;20489;-75
2022/05/28 12:21:31;;;;;;;4.13;1.93;;;19.20;41.80;;;;;;5045390;28;20214;-75
2022/05/28 12:24:19;;;;;;;3.10;1.70;;;19.50;41.10;;;;;;5058468;28;20959;-75
2022/05/28 12:29:49;;;;;;;4.27;1.87;;;19.40;41.60;;;;;;5045184;28;20797;-77
2022/05/28 12:32:17;;;;;;;3.80;1.80;;;18.40;43.00;;;;;;5041483;28;20406;-75
2022/05/28 12:35:09;;;;;;;2.70;1.60;;;17.40;45.80;;;;;;5070663;28;20492;-74
2022/05/28 12:37:34;;;;;;;6.00;2.27;;;17.40;46.20;;;;;;5058945;28;20426;-74
2022/05/28 12:40:33;;;;;;;5.33;2.17;;;17.40;46.60;;;;;;5044579;28;20471;-76
2022/05/28 12:43:12;;;;;;;3.67;1.90;;;17.40;47.10;;;;;;5043592;28;20287;-75
2022/05/28 12:45:41;;;;;;;5.87;2.30;;;17.50;47.00;;;;;;5046842;28;20872;-77
2022/05/28 12:48:30;;;;;;;2.90;1.70;;;17.80;46.20;;;;;;5046202;28;20433;-75
2022/05/28 12:51:24;;;;;;;6.53;2.67;;;17.70;46.20;;;;;;5047911;28;20438;-75
2022/05/28 12:54:00;;;;;;;3.60;1.70;;;17.40;46.70;;;;;;5044105;28;20423;-77
2022/05/28 12:56:35;;;;;;;5.20;2.03;;;16.90;47.90;;;;;;5050183;28;20508;-75
2022/05/28 12:59:12;;;;;;;2.70;1.80;;;17.00;48.70;;;;;;5050581;28;20464;-75
2022/05/28 13:01:54;;;;;;;3.30;1.73;;;17.30;47.30;;;;;;5053778;28;20429;-75
2022/05/28 13:04:20;;;;;;;8.23;2.30;;;17.60;46.20;;;;;;5049935;28;20539;-75
2022/05/28 13:06:48;;;;;;;3.30;1.80;;;17.90;46.50;;;;;;5054901;28;20416;-76
2022/05/28 13:09:14;;;;;;;6.47;1.93;;;18.20;45.30;;;;;;5058321;28;20470;-74
2022/05/28 13:11:52;;;;;;;3.87;1.83;;;18.20;45.80;;;;;;5056572;28;20436;-75
2022/05/28 13:14:39;;;;;;;4.60;2.07;;;18.50;45.90;;;;;;5051518;28;20534;-76
2022/05/28 13:17:08;;;;;;;3.87;2.13;;;19.10;43.50;;;;;;5053113;28;20410;-76
2022/05/28 13:19:46;;;;;;;7.60;2.67;;;19.60;43.40;;;;;;5056914;28;20541;-78
2022/05/28 13:22:37;;;;;;;3.63;1.80;;;19.60;41.80;;;;;;5057687;28;20938;-76